Time;durP1;ratioP1;P1;durP2;ratioP2;P2;SDS_P1;SDS_P2;PMS_P1;PMS_P2;Temp;Humidity;BMP_temperature;BMP_pressure;BME280_temperature;BME280_humidity;BME280_pressure;Samples;Min_cycle;Max_cycle;Signal;HPM_P1;HPM_P2
2020/12/17 00:01:12;;;;;;;8.90;8.00;;;10.10;99.90;;;;;;5052822;28;20160;-66
2020/12/17 00:03:37;;;;;;;10.10;7.40;;;10.10;99.90;;;;;;5052824;28;20248;-66
2020/12/17 00:06:03;;;;;;;8.83;7.90;;;10.10;99.90;;;;;;5052542;28;20239;-66
2020/12/17 00:08:28;;;;;;;8.93;8.03;;;10.10;99.90;;;;;;5064682;28;20160;-66
2020/12/17 00:10:54;;;;;;;9.60;7.70;;;10.10;99.90;;;;;;5072595;28;20179;-66
2020/12/17 00:13:21;;;;;;;9.10;8.17;;;10.10;99.90;;;;;;5074088;28;20162;-66
2020/12/17 00:15:47;;;;;;;11.03;7.80;;;10.20;99.90;;;;;;5076466;28;20184;-66
2020/12/17 00:18:13;;;;;;;8.70;7.83;;;10.20;99.90;;;;;;5066348;28;20773;-66
2020/12/17 00:20:38;;;;;;;8.67;6.90;;;10.10;99.90;;;;;;5056181;28;20488;-66
2020/12/17 00:23:04;;;;;;;8.10;7.30;;;10.20;99.90;;;;;;5056497;28;20165;-66
2020/12/17 00:25:29;;;;;;;7.93;7.13;;;10.20;99.90;;;;;;5056087;28;20687;-66
2020/12/17 00:27:55;;;;;;;8.50;7.40;;;10.20;99.90;;;;;;5062992;28;20167;-66
2020/12/17 00:30:21;;;;;;;8.97;7.20;;;10.20;99.90;;;;;;5076115;28;20187;-66
2020/12/17 00:32:48;;;;;;;7.57;6.87;;;10.20;99.90;;;;;;5076111;28;20546;-66
2020/12/17 00:35:14;;;;;;;10.40;7.77;;;10.20;99.90;;;;;;5075953;28;20398;-66
2020/12/17 00:37:40;;;;;;;8.40;7.50;;;10.20;99.90;;;;;;5071016;28;20556;-66
2020/12/17 00:40:10;;;;;;;8.83;6.70;;;10.20;99.90;;;;;;5054762;28;20406;-66
2020/12/17 00:42:40;;;;;;;7.00;6.30;;;10.20;99.90;;;;;;5054635;28;20422;-66
2020/12/17 00:45:07;;;;;;;7.77;6.90;;;10.20;99.90;;;;;;5055993;28;20485;-66
2020/12/17 00:47:32;;;;;;;7.43;6.47;;;10.20;99.90;;;;;;5058858;28;20406;-66
2020/12/17 00:49:58;;;;;;;9.80;7.20;;;10.20;99.90;;;;;;5074685;28;20769;-66
2020/12/17 00:52:24;;;;;;;8.27;7.27;;;10.20;99.90;;;;;;5075656;28;20179;-66
2020/12/17 00:54:50;;;;;;;7.43;6.73;;;10.20;99.90;;;;;;5075587;28;20156;-66
2020/12/17 00:57:16;;;;;;;9.40;6.20;;;10.10;99.90;;;;;;5075049;28;20406;-66
2020/12/17 00:59:41;;;;;;;15.77;6.63;;;10.10;99.90;;;;;;5075704;28;20477;-66
2020/12/17 01:02:07;;;;;;;7.03;6.33;;;10.10;99.90;;;;;;5075527;28;20160;-66
2020/12/17 01:04:32;;;;;;;7.20;6.03;;;10.10;99.90;;;;;;5075253;28;20163;-66
2020/12/17 01:06:58;;;;;;;8.33;6.60;;;10.00;99.90;;;;;;5075409;28;20153;-66
2020/12/17 01:09:24;;;;;;;8.63;6.17;;;10.00;99.90;;;;;;5074704;28;20176;-66
2020/12/17 01:11:49;;;;;;;7.93;7.13;;;10.00;99.90;;;;;;5075032;28;20546;-66
2020/12/17 01:14:15;;;;;;;8.93;6.90;;;10.00;99.90;;;;;;5075355;28;20402;-66
2020/12/17 01:16:40;;;;;;;6.77;6.17;;;10.00;99.90;;;;;;5075355;28;20156;-66
2020/12/17 01:19:26;;;;;;;6.90;6.20;;;9.90;99.90;;;;;;5059604;28;20189;-66
2020/12/17 01:21:52;;;;;;;8.83;6.50;;;9.90;99.90;;;;;;5061107;28;20656;-66
2020/12/17 01:24:17;;;;;;;8.93;6.53;;;9.80;99.90;;;;;;5074773;28;20489;-66
2020/12/17 01:26:43;;;;;;;6.87;6.17;;;9.90;99.90;;;;;;5075044;28;20398;-66
2020/12/17 01:29:08;;;;;;;7.63;6.87;;;9.90;99.90;;;;;;5075088;28;20629;-66
2020/12/17 01:31:34;;;;;;;6.43;5.90;;;9.90;99.90;;;;;;5059050;28;20307;-66
2020/12/17 01:33:59;;;;;;;7.03;5.90;;;9.80;99.90;;;;;;5055159;28;20173;-66
2020/12/17 01:36:25;;;;;;;6.53;5.93;;;9.80;99.90;;;;;;5054904;28;20172;-66
2020/12/17 01:38:50;;;;;;;7.00;6.30;;;9.90;99.90;;;;;;5058019;28;20183;-66
2020/12/17 01:41:16;;;;;;;6.17;5.50;;;9.90;99.90;;;;;;5062087;28;20533;-66
2020/12/17 01:43:44;;;;;;;6.93;5.53;;;9.90;99.90;;;;;;5054927;28;20173;-66
2020/12/17 01:46:12;;;;;;;5.90;5.40;;;10.00;99.90;;;;;;5054615;28;20203;-66
2020/12/17 01:48:38;;;;;;;8.00;5.10;;;10.00;99.90;;;;;;5054792;28;20437;-66
2020/12/17 01:51:05;;;;;;;7.23;6.50;;;10.10;99.90;;;;;;5065033;28;20461;-66
2020/12/17 01:53:40;;;;;;;6.00;5.40;;;10.10;99.90;;;;;;5058148;28;20423;-66
2020/12/17 01:56:13;;;;;;;7.60;5.80;;;10.10;99.90;;;;;;5058890;28;20417;-66
2020/12/17 01:58:44;;;;;;;5.63;5.03;;;10.20;99.90;;;;;;5074511;28;20820;-66
2020/12/17 02:01:13;;;;;;;6.83;5.40;;;10.20;99.90;;;;;;5063093;28;20449;-66
2020/12/17 02:03:39;;;;;;;9.53;5.57;;;10.20;99.90;;;;;;5054254;28;20423;-66
2020/12/17 02:06:05;;;;;;;7.20;5.50;;;10.20;99.90;;;;;;5054512;28;20395;-66
2020/12/17 02:08:37;;;;;;;6.07;5.50;;;10.20;99.90;;;;;;5054519;28;20748;-66
2020/12/17 02:11:04;;;;;;;6.00;4.87;;;10.30;99.90;;;;;;5054651;28;20466;-66
2020/12/17 02:13:32;;;;;;;6.47;5.10;;;10.30;99.90;;;;;;5062915;28;20410;-66
2020/12/17 02:15:59;;;;;;;7.73;5.73;;;10.30;99.90;;;;;;5073155;28;20425;-66
2020/12/17 02:18:25;;;;;;;5.73;5.23;;;10.30;99.90;;;;;;5073984;28;20402;-66
2020/12/17 02:20:50;;;;;;;5.73;5.23;;;10.30;99.90;;;;;;5065908;28;20819;-66
2020/12/17 02:23:16;;;;;;;6.70;5.83;;;10.30;99.90;;;;;;5065542;28;20174;-66
2020/12/17 02:25:41;;;;;;;9.60;5.53;;;10.30;99.90;;;;;;5074149;28;20167;-66
2020/12/17 02:28:07;;;;;;;5.80;5.20;;;10.30;99.90;;;;;;5073787;28;20167;-66
2020/12/17 02:30:32;;;;;;;5.67;5.00;;;10.20;99.90;;;;;;5068415;28;20184;-66
2020/12/17 02:32:58;;;;;;;5.80;5.20;;;10.20;99.90;;;;;;5053758;28;20160;-66
2020/12/17 02:35:23;;;;;;;5.50;5.00;;;10.20;99.90;;;;;;5053133;28;20239;-66
2020/12/17 02:37:49;;;;;;;7.50;5.23;;;10.20;99.90;;;;;;5053869;28;20157;-66
2020/12/17 02:40:14;;;;;;;5.70;4.93;;;10.20;99.90;;;;;;5056224;28;20223;-66
2020/12/17 02:42:40;;;;;;;6.40;4.70;;;10.30;99.90;;;;;;5073436;28;20160;-66
2020/12/17 02:45:05;;;;;;;4.73;4.23;;;10.20;99.90;;;;;;5073471;28;20160;-66
2020/12/17 02:47:31;;;;;;;6.90;5.40;;;10.20;99.90;;;;;;5073430;28;20629;-66
2020/12/17 02:49:56;;;;;;;5.47;4.93;;;10.20;99.90;;;;;;5073339;28;20182;-66
2020/12/17 02:52:22;;;;;;;6.30;5.40;;;10.20;99.90;;;;;;5073040;28;20270;-66
2020/12/17 02:54:47;;;;;;;6.00;4.77;;;10.20;99.90;;;;;;5073380;28;20153;-66
2020/12/17 02:57:13;;;;;;;6.03;5.00;;;10.30;99.90;;;;;;5073307;28;20148;-66
2020/12/17 02:59:38;;;;;;;5.77;5.17;;;10.20;99.90;;;;;;5073319;28;20157;-66
2020/12/17 03:02:04;;;;;;;5.90;5.30;;;10.20;99.90;;;;;;5073209;28;20187;-66
2020/12/17 03:04:29;;;;;;;5.33;4.83;;;10.30;99.90;;;;;;5072974;28;20233;-66
2020/12/17 03:06:55;;;;;;;7.10;5.63;;;10.30;99.90;;;;;;5073338;28;20218;-66
2020/12/17 03:09:20;;;;;;;6.40;5.20;;;10.30;99.90;;;;;;5071554;28;20175;-66
2020/12/17 03:11:46;;;;;;;5.23;4.73;;;10.30;99.90;;;;;;5073555;28;20230;-66
2020/12/17 03:14:11;;;;;;;7.40;5.23;;;10.30;99.90;;;;;;5073099;28;20245;-66
2020/12/17 03:16:37;;;;;;;5.90;5.30;;;10.30;99.90;;;;;;5073015;28;20443;-66
2020/12/17 03:19:02;;;;;;;6.87;5.17;;;10.20;99.90;;;;;;5072774;28;20575;-66
2020/12/17 03:21:29;;;;;;;5.40;4.90;;;10.20;99.90;;;;;;5072715;28;20203;-66
2020/12/17 03:23:54;;;;;;;6.00;5.40;;;10.20;99.90;;;;;;5073130;28;20157;-66
2020/12/17 03:26:20;;;;;;;6.97;5.10;;;10.10;99.90;;;;;;5073126;28;20397;-66
2020/12/17 03:28:45;;;;;;;5.30;4.83;;;10.10;99.90;;;;;;5072194;28;20192;-66
2020/12/17 03:31:11;;;;;;;8.77;5.77;;;10.10;99.90;;;;;;5072762;28;20207;-66
2020/12/17 03:33:37;;;;;;;5.73;5.27;;;10.10;99.90;;;;;;5073013;28;20175;-66
2020/12/17 03:36:03;;;;;;;5.50;5.00;;;10.10;99.90;;;;;;5071921;28;20149;-66
2020/12/17 03:38:29;;;;;;;5.93;5.33;;;10.10;99.90;;;;;;5072814;28;20551;-66
2020/12/17 03:40:54;;;;;;;5.10;4.70;;;10.10;99.90;;;;;;5054975;28;20455;-66
2020/12/17 03:43:20;;;;;;;8.00;5.37;;;10.10;99.90;;;;;;5052785;28;20220;-66
2020/12/17 03:45:45;;;;;;;7.63;5.37;;;10.10;99.90;;;;;;5052965;28;20189;-66
2020/12/17 03:48:11;;;;;;;5.37;4.87;;;10.10;99.90;;;;;;5055600;28;20165;-66
2020/12/17 03:50:36;;;;;;;6.73;5.57;;;10.10;99.90;;;;;;5071927;28;20179;-66
2020/12/17 03:53:02;;;;;;;5.60;5.10;;;10.10;99.90;;;;;;5076765;28;20152;-66
2020/12/17 03:55:28;;;;;;;8.80;6.20;;;10.00;99.90;;;;;;5076643;28;20176;-66
2020/12/17 03:57:54;;;;;;;7.47;6.40;;;10.10;99.90;;;;;;5077137;28;20206;-66
2020/12/17 04:00:19;;;;;;;6.27;4.90;;;10.00;99.90;;;;;;5076320;28;20422;-66
2020/12/17 04:02:45;;;;;;;5.60;5.10;;;10.10;99.90;;;;;;5076632;28;20204;-66
2020/12/17 04:05:10;;;;;;;7.20;5.10;;;10.10;99.90;;;;;;5076642;28;20160;-66
2020/12/17 04:07:36;;;;;;;8.03;5.67;;;10.10;99.90;;;;;;5076620;28;20526;-66
2020/12/17 04:10:02;;;;;;;5.70;5.20;;;10.10;99.90;;;;;;5066713;28;20192;-66
2020/12/17 04:12:29;;;;;;;6.00;5.33;;;10.10;99.90;;;;;;5065063;28;20212;-66
2020/12/17 04:14:54;;;;;;;6.00;5.40;;;10.10;99.90;;;;;;5076535;28;20374;-66
2020/12/17 04:17:20;;;;;;;6.80;5.77;;;10.10;99.90;;;;;;5076256;28;20480;-66
2020/12/17 04:19:45;;;;;;;5.40;4.90;;;10.10;99.90;;;;;;5069156;28;20193;-66
2020/12/17 04:22:16;;;;;;;6.03;5.47;;;10.10;99.90;;;;;;5056300;28;20172;-66
2020/12/17 04:24:44;;;;;;;6.30;5.20;;;10.10;99.90;;;;;;5056275;28;20203;-66
2020/12/17 04:27:09;;;;;;;7.37;6.33;;;10.10;99.90;;;;;;5056494;28;20391;-66
2020/12/17 04:29:35;;;;;;;7.07;5.40;;;10.10;99.90;;;;;;5059884;28;20431;-66
2020/12/17 04:32:00;;;;;;;7.80;5.70;;;10.10;99.90;;;;;;5056047;28;20188;-66
2020/12/17 04:34:26;;;;;;;5.93;5.40;;;10.10;99.90;;;;;;5056181;28;20156;-66
2020/12/17 04:36:51;;;;;;;6.27;5.07;;;10.10;99.90;;;;;;5056062;28;20243;-66
2020/12/17 04:39:17;;;;;;;5.80;5.20;;;10.10;99.90;;;;;;5058449;28;20263;-66
2020/12/17 04:41:44;;;;;;;10.60;6.73;;;10.10;99.90;;;;;;5075859;28;20167;-67
2020/12/17 04:44:10;;;;;;;6.47;5.50;;;10.10;99.90;;;;;;5075684;28;20199;-66
2020/12/17 04:46:36;;;;;;;7.10;5.20;;;10.10;99.90;;;;;;5075212;28;20425;-66
2020/12/17 04:49:03;;;;;;;6.63;6.03;;;10.10;99.90;;;;;;5074931;28;20468;-66
2020/12/17 04:51:30;;;;;;;8.07;5.63;;;10.10;99.90;;;;;;5075189;28;20449;-66
2020/12/17 04:54:01;;;;;;;6.40;5.53;;;10.10;99.90;;;;;;5075997;28;20482;-66
2020/12/17 04:56:27;;;;;;;6.37;5.10;;;10.10;99.90;;;;;;5074440;28;20391;-66
2020/12/17 04:58:58;;;;;;;5.80;5.20;;;10.10;99.90;;;;;;5074733;28;20497;-66
2020/12/17 05:01:31;;;;;;;6.03;5.43;;;10.10;99.90;;;;;;5074044;28;20501;-66
2020/12/17 05:03:57;;;;;;;6.40;5.10;;;10.10;99.90;;;;;;5075711;28;20802;-66
2020/12/17 05:06:24;;;;;;;6.40;5.50;;;10.10;99.90;;;;;;5075717;28;20756;-66
2020/12/17 05:08:51;;;;;;;6.60;4.80;;;10.10;99.90;;;;;;5075668;28;20803;-66
2020/12/17 05:11:17;;;;;;;5.47;4.97;;;10.10;99.90;;;;;;5057445;28;20487;-66
2020/12/17 05:13:42;;;;;;;7.93;5.33;;;10.10;99.90;;;;;;5054323;28;20384;-66
2020/12/17 05:16:08;;;;;;;6.03;5.20;;;10.10;99.90;;;;;;5055313;28;20396;-66
2020/12/17 05:18:34;;;;;;;6.40;5.80;;;10.10;99.90;;;;;;5055421;28;20180;-67
2020/12/17 05:21:01;;;;;;;15.63;6.13;;;10.10;99.90;;;;;;5061688;28;20447;-66
2020/12/17 05:23:28;;;;;;;6.50;5.87;;;10.10;99.90;;;;;;5055388;28;20250;-66
2020/12/17 05:25:54;;;;;;;5.80;5.20;;;10.10;99.90;;;;;;5055085;28;20399;-66
2020/12/17 05:28:20;;;;;;;7.70;5.57;;;10.10;99.90;;;;;;5053988;28;20396;-66
2020/12/17 05:30:46;;;;;;;7.30;5.90;;;10.10;99.90;;;;;;5055389;28;20465;-66
2020/12/17 05:33:11;;;;;;;6.60;6.00;;;10.10;99.90;;;;;;5053773;28;20396;-67
2020/12/17 05:35:40;;;;;;;9.07;6.50;;;10.10;99.90;;;;;;5053752;28;20165;-66
2020/12/17 05:38:09;;;;;;;7.20;6.00;;;10.10;99.90;;;;;;5067175;28;20633;-67
2020/12/17 05:40:38;;;;;;;7.40;6.63;;;10.10;99.90;;;;;;5067794;28;20481;-66
2020/12/17 05:43:04;;;;;;;7.77;7.00;;;10.00;99.90;;;;;;5053767;28;20880;-67
2020/12/17 05:45:31;;;;;;;7.63;6.47;;;10.00;99.90;;;;;;5053736;28;20395;-66
2020/12/17 05:48:15;;;;;;;6.73;6.13;;;10.00;99.90;;;;;;5054816;28;20491;-66
2020/12/17 05:51:01;;;;;;;9.53;6.80;;;9.90;99.90;;;;;;5060880;28;20442;-66
2020/12/17 05:53:29;;;;;;;8.10;7.30;;;9.90;99.90;;;;;;5073433;28;20391;-66
2020/12/17 05:56:04;;;;;;;7.77;6.30;;;9.90;99.90;;;;;;5073051;28;20402;-66
2020/12/17 05:58:45;;;;;;;6.83;6.10;;;9.90;99.90;;;;;;5073523;28;20883;-66
2020/12/17 06:01:12;;;;;;;6.90;6.30;;;9.80;99.90;;;;;;5074204;28;20471;-66
2020/12/17 06:03:39;;;;;;;8.80;7.20;;;9.80;99.90;;;;;;5074461;28;20924;-66
2020/12/17 06:06:07;;;;;;;8.60;6.13;;;9.80;99.90;;;;;;5074388;28;20395;-66
2020/12/17 06:08:38;;;;;;;7.10;6.27;;;9.80;99.90;;;;;;5073345;28;20414;-66
2020/12/17 06:11:06;;;;;;;7.80;7.00;;;9.90;99.90;;;;;;5070718;28;20541;-66
2020/12/17 06:13:35;;;;;;;8.83;6.97;;;9.80;99.90;;;;;;5073438;28;20407;-67
2020/12/17 06:16:04;;;;;;;9.63;6.63;;;9.80;99.90;;;;;;5074351;28;20399;-66
2020/12/17 06:18:37;;;;;;;7.63;6.90;;;9.90;99.90;;;;;;5072847;28;20443;-67
2020/12/17 06:21:11;;;;;;;6.53;5.93;;;9.90;99.90;;;;;;5073542;28;20452;-66
2020/12/17 06:23:38;;;;;;;7.20;6.50;;;9.90;99.90;;;;;;5073948;28;20491;-66
2020/12/17 06:26:08;;;;;;;8.40;5.53;;;9.90;99.90;;;;;;5074027;28;20482;-67
2020/12/17 06:28:43;;;;;;;6.30;5.70;;;9.90;99.90;;;;;;5074098;28;20422;-66
2020/12/17 06:31:13;;;;;;;6.40;5.90;;;9.90;99.90;;;;;;5063379;28;20469;-66
2020/12/17 06:33:38;;;;;;;7.17;6.40;;;9.90;99.90;;;;;;5053849;28;20480;-66
2020/12/17 06:36:12;;;;;;;6.20;5.70;;;9.90;99.90;;;;;;5053779;28;20439;-66
2020/12/17 06:38:39;;;;;;;9.60;6.57;;;9.90;99.90;;;;;;5052187;28;20160;-66
2020/12/17 06:41:23;;;;;;;7.67;6.83;;;10.00;99.90;;;;;;5063250;28;20907;-67
2020/12/17 06:43:50;;;;;;;6.23;5.63;;;10.00;99.90;;;;;;5064619;28;21001;-66
2020/12/17 06:46:34;;;;;;;8.83;6.57;;;10.00;99.90;;;;;;5066578;28;20450;-66
2020/12/17 19:29:30;;;;;;;6.17;3.10;;;8.50;99.90;;;;;;5069516;28;20540;-65
2020/12/17 19:31:59;;;;;;;7.83;3.40;;;8.50;99.90;;;;;;5049411;28;20481;-65
2020/12/17 19:34:25;;;;;;;7.07;3.53;;;8.60;99.90;;;;;;5055812;28;20477;-65
2020/12/17 19:36:54;;;;;;;7.47;2.50;;;8.70;99.90;;;;;;5053264;28;20446;-65
2020/12/17 19:39:20;;;;;;;5.90;3.07;;;8.70;99.90;;;;;;5055020;28;20523;-65
2020/12/17 19:41:45;;;;;;;5.40;2.73;;;8.80;99.90;;;;;;5057309;28;20437;-65
2020/12/17 19:44:11;;;;;;;6.37;2.73;;;8.80;99.90;;;;;;5051350;28;20199;-65
2020/12/17 19:46:36;;;;;;;6.23;2.83;;;8.80;99.90;;;;;;5032420;28;20191;-65
2020/12/17 19:49:02;;;;;;;5.87;3.10;;;8.80;99.90;;;;;;5055256;28;20294;-65
2020/12/17 19:51:27;;;;;;;7.23;3.43;;;8.80;99.90;;;;;;5056940;28;20294;-65
2020/12/17 19:53:53;;;;;;;6.37;3.30;;;8.80;99.90;;;;;;5044799;28;20237;-65
2020/12/17 19:56:21;;;;;;;7.47;3.57;;;8.80;99.90;;;;;;5057300;28;20536;-65
2020/12/17 19:58:46;;;;;;;5.30;3.07;;;8.90;99.90;;;;;;5053253;28;20330;-65
2020/12/17 20:01:12;;;;;;;5.73;3.03;;;8.90;99.90;;;;;;5040421;28;20435;-65
2020/12/17 20:03:37;;;;;;;7.23;3.10;;;8.90;99.90;;;;;;5056885;28;20250;-65
2020/12/17 20:06:03;;;;;;;7.53;2.93;;;8.80;99.90;;;;;;5050287;28;20184;-65
2020/12/17 20:08:28;;;;;;;4.57;2.40;;;8.80;99.90;;;;;;5051451;28;20547;-65
2020/12/17 20:10:55;;;;;;;5.20;3.03;;;8.80;99.90;;;;;;5056954;28;20187;-65
2020/12/17 20:13:20;;;;;;;4.07;2.90;;;8.80;99.90;;;;;;5052920;28;20250;-65
2020/12/17 20:15:46;;;;;;;5.50;2.73;;;8.80;99.90;;;;;;5063022;28;20957;-66
2020/12/17 20:18:13;;;;;;;4.30;3.90;;;8.80;99.90;;;;;;5060325;28;20180;-65
2020/12/17 20:20:39;;;;;;;5.93;3.23;;;8.80;99.90;;;;;;5048891;28;20262;-65
2020/12/17 20:23:04;;;;;;;4.60;2.97;;;8.80;99.90;;;;;;5047803;28;20442;-66
2020/12/17 20:25:30;;;;;;;4.77;3.03;;;8.80;99.90;;;;;;5048852;28;20512;-66
2020/12/17 20:27:55;;;;;;;6.93;3.37;;;8.80;99.90;;;;;;5047760;28;20185;-66
2020/12/17 20:30:21;;;;;;;7.13;2.87;;;8.80;99.90;;;;;;5051883;28;20433;-66
2020/12/17 20:32:46;;;;;;;4.13;3.27;;;8.70;99.90;;;;;;5055080;28;20211;-66
2020/12/17 20:35:12;;;;;;;4.30;3.03;;;8.70;99.90;;;;;;5051090;28;20612;-66
2020/12/17 20:37:38;;;;;;;6.93;3.27;;;8.70;99.90;;;;;;5052685;28;20191;-66
2020/12/17 20:40:05;;;;;;;4.60;3.10;;;8.70;99.90;;;;;;5051988;28;20628;-66
2020/12/17 20:42:30;;;;;;;6.30;3.77;;;8.70;99.90;;;;;;5056278;28;20943;-65
2020/12/17 20:44:56;;;;;;;4.60;2.80;;;8.70;99.90;;;;;;5058165;28;20852;-66
2020/12/17 20:47:21;;;;;;;8.60;2.90;;;8.70;99.90;;;;;;5054927;28;20688;-65
2020/12/17 20:49:48;;;;;;;7.73;2.83;;;8.70;99.90;;;;;;5058514;28;20190;-66
2020/12/17 20:52:14;;;;;;;5.50;2.73;;;8.70;99.90;;;;;;5054214;28;20215;-65
2020/12/17 20:54:39;;;;;;;4.77;2.63;;;8.60;99.90;;;;;;5051020;28;20524;-66
2020/12/17 20:57:05;;;;;;;5.53;2.97;;;8.60;99.90;;;;;;5062237;28;20192;-65
2020/12/17 20:59:33;;;;;;;4.47;2.60;;;8.60;99.90;;;;;;5053790;28;20654;-65
2020/12/17 21:01:59;;;;;;;4.63;3.07;;;8.60;99.90;;;;;;5052244;28;20188;-66
2020/12/17 21:04:24;;;;;;;5.93;3.40;;;8.60;99.90;;;;;;5050813;28;20905;-65
2020/12/17 21:06:52;;;;;;;4.30;2.93;;;8.60;99.90;;;;;;5050973;28;20208;-65
2020/12/17 21:09:18;;;;;;;4.70;2.83;;;8.60;99.90;;;;;;5057366;28;20657;-66
2020/12/17 21:11:44;;;;;;;5.33;3.13;;;8.60;99.90;;;;;;5056927;28;20536;-66
2020/12/17 21:14:09;;;;;;;6.37;2.90;;;8.50;99.90;;;;;;5056133;28;20238;-65
2020/12/17 21:16:35;;;;;;;3.77;3.47;;;8.60;99.90;;;;;;5051176;28;20726;-66
2020/12/17 21:19:00;;;;;;;4.90;3.60;;;8.50;99.90;;;;;;5055839;28;20222;-65
2020/12/17 21:21:26;;;;;;;5.27;3.90;;;8.50;99.90;;;;;;5061207;23;20234;-74
2020/12/17 21:23:55;;;;;;;4.83;3.60;;;8.50;99.90;;;;;;5035348;28;20632;-74
2020/12/17 21:26:25;;;;;;;13.13;3.90;;;8.50;99.90;;;;;;5078361;28;20199;-74
2020/12/17 21:28:51;;;;;;;5.13;4.10;;;8.50;99.90;;;;;;5074808;28;20430;-73
2020/12/17 21:31:16;;;;;;;8.03;3.27;;;8.50;99.90;;;;;;5071997;28;20432;-73
2020/12/17 21:33:42;;;;;;;5.00;3.83;;;8.50;99.90;;;;;;5073663;28;20567;-73
2020/12/17 21:36:10;;;;;;;6.50;3.63;;;8.40;99.90;;;;;;5075057;28;20279;-73
2020/12/17 21:38:36;;;;;;;5.67;3.70;;;8.50;99.90;;;;;;5076428;28;20176;-73
2020/12/17 21:41:01;;;;;;;9.27;3.70;;;8.50;99.90;;;;;;5071496;28;20870;-74
2020/12/17 21:43:27;;;;;;;4.87;3.20;;;8.50;99.90;;;;;;5071666;28;20579;-73
2020/12/17 21:45:52;;;;;;;7.07;5.60;;;8.50;99.90;;;;;;5072664;28;20183;-73
2020/12/17 21:48:18;;;;;;;4.87;3.40;;;8.50;99.90;;;;;;5074866;28;20179;-73
2020/12/17 21:50:44;;;;;;;6.87;3.77;;;8.50;99.90;;;;;;5071355;28;20266;-73
2020/12/17 21:53:09;;;;;;;3.87;3.13;;;8.50;99.90;;;;;;5071030;28;20207;-73
2020/12/17 21:55:34;;;;;;;5.47;2.93;;;8.50;99.90;;;;;;5051986;28;20195;-73
2020/12/17 21:58:00;;;;;;;9.10;3.37;;;8.50;99.90;;;;;;5078161;28;20195;-73
2020/12/17 22:00:25;;;;;;;5.80;3.70;;;8.50;99.90;;;;;;5071499;28;20192;-73
2020/12/17 22:02:51;;;;;;;4.13;3.57;;;8.40;99.90;;;;;;5075449;28;22205;-73
2020/12/17 22:05:18;;;;;;;5.13;3.30;;;8.40;99.90;;;;;;5060924;28;20186;-73
2020/12/17 22:07:44;;;;;;;4.57;3.60;;;8.40;99.90;;;;;;5072100;28;20640;-73
2020/12/17 22:10:09;;;;;;;4.53;3.40;;;8.40;99.90;;;;;;5071223;28;20444;-73
2020/12/17 22:12:35;;;;;;;4.57;3.10;;;8.30;99.90;;;;;;5069718;28;20664;-73
2020/12/17 22:15:03;;;;;;;6.20;3.70;;;8.30;99.90;;;;;;5074667;28;20270;-73
2020/12/17 22:17:30;;;;;;;8.63;3.63;;;8.30;99.90;;;;;;5073481;28;20184;-73
2020/12/17 22:19:55;;;;;;;7.83;3.80;;;8.20;99.90;;;;;;5055090;28;20453;-73
2020/12/17 22:22:21;;;;;;;4.63;2.73;;;8.20;99.90;;;;;;5073960;28;20770;-73
2020/12/17 22:24:46;;;;;;;4.53;3.90;;;8.20;99.90;;;;;;5072410;28;20678;-73
2020/12/17 22:27:12;;;;;;;6.73;3.23;;;8.10;99.90;;;;;;5063241;28;20681;-73
2020/12/17 22:29:37;;;;;;;4.20;3.50;;;8.10;99.90;;;;;;5073928;28;20203;-73
2020/12/17 22:32:04;;;;;;;8.87;3.90;;;8.10;99.90;;;;;;5074775;28;20574;-73
2020/12/17 22:34:30;;;;;;;5.47;3.27;;;8.00;99.90;;;;;;5070487;28;20207;-73
2020/12/17 22:36:57;;;;;;;5.60;4.27;;;8.00;99.90;;;;;;5070715;28;20982;-73
2020/12/17 22:39:25;;;;;;;6.43;4.27;;;8.00;99.90;;;;;;5053540;28;20434;-73
2020/12/17 22:41:52;;;;;;;4.90;3.47;;;8.00;99.90;;;;;;5074351;28;20438;-73
2020/12/17 22:44:17;;;;;;;4.70;4.07;;;8.00;99.90;;;;;;5070521;28;20446;-73
2020/12/17 22:46:43;;;;;;;4.60;4.13;;;8.00;99.90;;;;;;5073743;28;20437;-73
2020/12/17 22:49:09;;;;;;;7.23;3.57;;;8.00;99.90;;;;;;5052817;28;20274;-73
2020/12/17 22:51:36;;;;;;;5.77;3.77;;;8.10;99.90;;;;;;5070634;28;20203;-73
2020/12/17 22:54:04;;;;;;;5.73;3.70;;;8.10;99.90;;;;;;5069540;28;20456;-73
2020/12/17 22:56:34;;;;;;;7.93;3.50;;;8.10;99.90;;;;;;5069290;28;20445;-73
2020/12/17 22:59:02;;;;;;;4.10;3.27;;;8.10;99.90;;;;;;5076004;28;20434;-73
2020/12/17 23:01:30;;;;;;;7.17;3.70;;;8.10;99.90;;;;;;5054087;28;20836;-73
2020/12/17 23:03:57;;;;;;;5.93;3.60;;;8.10;99.90;;;;;;5073777;28;20476;-73
2020/12/17 23:06:22;;;;;;;5.30;3.60;;;8.10;99.90;;;;;;5070858;28;20429;-73
2020/12/17 23:08:50;;;;;;;5.53;3.70;;;8.10;99.90;;;;;;5070106;28;21143;-73
2020/12/17 23:11:16;;;;;;;11.20;4.17;;;8.10;99.90;;;;;;5060362;28;20546;-73
2020/12/17 23:13:42;;;;;;;7.60;4.30;;;8.00;99.90;;;;;;5070082;28;20449;-73
2020/12/17 23:16:09;;;;;;;3.90;3.20;;;8.00;99.90;;;;;;5073280;28;20422;-73
2020/12/17 23:18:35;;;;;;;10.40;4.40;;;8.00;99.90;;;;;;5054555;28;20425;-73
2020/12/17 23:21:05;;;;;;;8.13;3.53;;;8.00;99.90;;;;;;5076808;28;20448;-73
2020/12/17 23:23:33;;;;;;;7.83;4.20;;;7.90;99.90;;;;;;5070961;28;20437;-74
2020/12/17 23:25:59;;;;;;;4.73;3.67;;;7.90;99.90;;;;;;5070086;28;20992;-73
2020/12/17 23:28:26;;;;;;;8.93;3.90;;;7.80;99.90;;;;;;5072413;28;20445;-73
2020/12/17 23:30:52;;;;;;;5.13;3.77;;;7.80;99.90;;;;;;5074077;28;20438;-73
2020/12/17 23:33:18;;;;;;;6.57;3.80;;;7.80;99.90;;;;;;5074357;28;20821;-73
2020/12/17 23:35:43;;;;;;;7.60;4.50;;;7.70;99.90;;;;;;5052911;28;20176;-73
2020/12/17 23:38:09;;;;;;;6.17;4.10;;;7.70;99.90;;;;;;5076775;28;20448;-73
2020/12/17 23:40:34;;;;;;;7.37;4.50;;;7.70;99.90;;;;;;5070836;28;20293;-73
2020/12/17 23:43:00;;;;;;;9.23;4.27;;;7.80;99.90;;;;;;5053467;28;20175;-73
2020/12/17 23:45:25;;;;;;;6.17;3.97;;;7.80;99.90;;;;;;5075370;28;20450;-73
2020/12/17 23:47:51;;;;;;;5.33;4.47;;;7.80;99.90;;;;;;5053007;28;20713;-73
2020/12/17 23:50:16;;;;;;;5.93;3.77;;;7.90;99.90;;;;;;5057519;28;20185;-73
2020/12/17 23:52:42;;;;;;;12.77;3.40;;;7.90;99.90;;;;;;5072559;28;20345;-73
2020/12/17 23:55:07;;;;;;;4.53;3.30;;;8.00;99.90;;;;;;5074208;28;20198;-73
2020/12/17 23:57:33;;;;;;;4.13;3.37;;;8.00;99.90;;;;;;5057085;28;20693;-73
2020/12/17 23:59:58;;;;;;;7.03;3.77;;;8.10;99.90;;;;;;5075975;28;20195;-73
